sensor_id;sensor_type;location;lat;lon;timestamp;P1;durP1;ratioP1;P2;durP2;ratioP2
16510;SDS011;8368;48.772;8.754;2022-09-16T00:01:14;10.87;;;7.40;;
16510;SDS011;8368;48.772;8.754;2022-09-16T00:03:42;11.70;;;7.67;;
16510;SDS011;8368;48.772;8.754;2022-09-16T00:06:18;8.57;;;7.77;;
16510;SDS011;8368;48.772;8.754;2022-09-16T00:08:45;8.50;;;7.70;;
16510;SDS011;8368;48.772;8.754;2022-09-16T00:11:11;9.40;;;7.83;;
16510;SDS011;8368;48.772;8.754;2022-09-16T00:13:37;8.57;;;7.73;;
16510;SDS011;8368;48.772;8.754;2022-09-16T00:16:07;9.47;;;8.50;;
16510;SDS011;8368;48.772;8.754;2022-09-16T00:18:34;10.70;;;8.73;;
16510;SDS011;8368;48.772;8.754;2022-09-16T00:20:59;9.40;;;8.40;;
16510;SDS011;8368;48.772;8.754;2022-09-16T00:23:25;9.60;;;7.63;;
16510;SDS011;8368;48.772;8.754;2022-09-16T00:25:51;9.37;;;8.27;;
16510;SDS011;8368;48.772;8.754;2022-09-16T00:28:18;9.40;;;8.07;;
16510;SDS011;8368;48.772;8.754;2022-09-16T00:30:45;9.97;;;8.20;;
16510;SDS011;8368;48.772;8.754;2022-09-16T00:33:11;8.40;;;7.60;;
16510;SDS011;8368;48.772;8.754;2022-09-16T00:35:37;10.17;;;7.90;;
16510;SDS011;8368;48.772;8.754;2022-09-16T00:38:02;9.07;;;8.03;;
16510;SDS011;8368;48.772;8.754;2022-09-16T00:40:28;8.97;;;7.93;;
16510;SDS011;8368;48.772;8.754;2022-09-16T00:42:53;8.10;;;7.33;;
16510;SDS011;8368;48.772;8.754;2022-09-16T00:45:23;8.80;;;7.87;;
16510;SDS011;8368;48.772;8.754;2022-09-16T00:47:56;8.73;;;7.83;;
16510;SDS011;8368;48.772;8.754;2022-09-16T00:53:00;8.70;;;8.00;;
16510;SDS011;8368;48.772;8.754;2022-09-16T00:55:27;10.40;;;7.53;;
16510;SDS011;8368;48.772;8.754;2022-09-16T00:57:58;9.30;;;8.43;;
16510;SDS011;8368;48.772;8.754;2022-09-16T01:00:45;9.70;;;7.90;;
16510;SDS011;8368;48.772;8.754;2022-09-16T01:03:11;9.77;;;8.13;;
16510;SDS011;8368;48.772;8.754;2022-09-16T01:05:37;12.27;;;8.10;;
16510;SDS011;8368;48.772;8.754;2022-09-16T01:08:03;12.57;;;8.10;;
16510;SDS011;8368;48.772;8.754;2022-09-16T01:10:29;11.57;;;7.87;;
16510;SDS011;8368;48.772;8.754;2022-09-16T01:12:56;9.23;;;8.33;;
16510;SDS011;8368;48.772;8.754;2022-09-16T01:15:30;13.27;;;6.97;;
16510;SDS011;8368;48.772;8.754;2022-09-16T01:18:20;9.27;;;7.33;;
16510;SDS011;8368;48.772;8.754;2022-09-16T01:24:00;9.23;;;7.57;;
16510;SDS011;8368;48.772;8.754;2022-09-16T01:49:07;12.53;;;8.73;;
16510;SDS011;8368;48.772;8.754;2022-09-16T01:51:47;10.77;;;9.27;;
16510;SDS011;8368;48.772;8.754;2022-09-16T01:54:33;13.27;;;8.90;;
16510;SDS011;8368;48.772;8.754;2022-09-16T01:57:15;14.10;;;9.20;;
16510;SDS011;8368;48.772;8.754;2022-09-16T01:59:53;10.77;;;8.03;;
16510;SDS011;8368;48.772;8.754;2022-09-16T02:02:31;9.17;;;8.07;;
16510;SDS011;8368;48.772;8.754;2022-09-16T02:05:25;9.67;;;8.67;;
16510;SDS011;8368;48.772;8.754;2022-09-16T02:08:03;10.10;;;8.67;;
16510;SDS011;8368;48.772;8.754;2022-09-16T02:10:34;8.43;;;7.37;;
16510;SDS011;8368;48.772;8.754;2022-09-16T02:13:13;11.67;;;8.27;;
16510;SDS011;8368;48.772;8.754;2022-09-16T02:15:43;9.27;;;7.37;;
16510;SDS011;8368;48.772;8.754;2022-09-16T02:18:14;9.17;;;6.93;;
16510;SDS011;8368;48.772;8.754;2022-09-16T02:20:45;8.13;;;7.40;;
16510;SDS011;8368;48.772;8.754;2022-09-16T02:23:20;7.53;;;6.83;;
16510;SDS011;8368;48.772;8.754;2022-09-16T02:25:49;7.03;;;6.33;;
16510;SDS011;8368;48.772;8.754;2022-09-16T02:28:22;9.53;;;6.60;;
16510;SDS011;8368;48.772;8.754;2022-09-16T02:30:54;5.93;;;5.33;;
16510;SDS011;8368;48.772;8.754;2022-09-16T02:33:23;10.90;;;5.30;;
16510;SDS011;8368;48.772;8.754;2022-09-16T02:35:54;9.83;;;5.60;;
16510;SDS011;8368;48.772;8.754;2022-09-16T02:38:40;6.30;;;5.70;;
16510;SDS011;8368;48.772;8.754;2022-09-16T02:41:09;9.43;;;5.23;;
16510;SDS011;8368;48.772;8.754;2022-09-16T02:43:39;9.07;;;5.40;;
16510;SDS011;8368;48.772;8.754;2022-09-16T02:46:08;7.23;;;5.70;;
16510;SDS011;8368;48.772;8.754;2022-09-16T02:49:12;8.03;;;4.80;;
16510;SDS011;8368;48.772;8.754;2022-09-16T02:51:42;7.60;;;4.70;;
16510;SDS011;8368;48.772;8.754;2022-09-16T02:57:00;4.80;;;4.40;;
16510;SDS011;8368;48.772;8.754;2022-09-16T02:59:27;5.00;;;4.60;;
16510;SDS011;8368;48.772;8.754;2022-09-16T03:01:52;5.37;;;4.87;;
16510;SDS011;8368;48.772;8.754;2022-09-16T03:04:19;5.50;;;4.27;;
16510;SDS011;8368;48.772;8.754;2022-09-16T03:06:45;7.00;;;4.80;;
16510;SDS011;8368;48.772;8.754;2022-09-16T03:09:12;6.73;;;4.97;;
16510;SDS011;8368;48.772;8.754;2022-09-16T03:11:53;9.93;;;6.13;;
16510;SDS011;8368;48.772;8.754;2022-09-16T03:27:44;7.07;;;5.70;;
16510;SDS011;8368;48.772;8.754;2022-09-16T03:30:18;6.57;;;5.80;;
16510;SDS011;8368;48.772;8.754;2022-09-16T03:32:55;6.37;;;5.80;;
16510;SDS011;8368;48.772;8.754;2022-09-16T03:35:33;9.10;;;5.80;;
16510;SDS011;8368;48.772;8.754;2022-09-16T03:38:07;8.00;;;6.03;;
16510;SDS011;8368;48.772;8.754;2022-09-16T03:40:34;7.40;;;6.60;;
16510;SDS011;8368;48.772;8.754;2022-09-16T03:43:08;6.20;;;5.70;;
16510;SDS011;8368;48.772;8.754;2022-09-16T03:45:39;5.73;;;5.33;;
16510;SDS011;8368;48.772;8.754;2022-09-16T03:48:06;8.23;;;5.17;;
16510;SDS011;8368;48.772;8.754;2022-09-16T03:50:33;6.60;;;5.60;;
16510;SDS011;8368;48.772;8.754;2022-09-16T03:52:58;7.10;;;5.40;;
16510;SDS011;8368;48.772;8.754;2022-09-16T03:55:24;5.60;;;5.07;;
16510;SDS011;8368;48.772;8.754;2022-09-16T03:57:51;7.10;;;5.67;;
16510;SDS011;8368;48.772;8.754;2022-09-16T04:00:18;9.83;;;6.30;;
16510;SDS011;8368;48.772;8.754;2022-09-16T04:02:43;9.20;;;6.17;;
16510;SDS011;8368;48.772;8.754;2022-09-16T04:05:09;6.30;;;5.70;;
16510;SDS011;8368;48.772;8.754;2022-09-16T04:07:35;8.27;;;5.70;;
16510;SDS011;8368;48.772;8.754;2022-09-16T04:10:00;6.67;;;6.17;;
16510;SDS011;8368;48.772;8.754;2022-09-16T04:12:27;6.03;;;5.53;;
16510;SDS011;8368;48.772;8.754;2022-09-16T04:14:53;7.07;;;6.23;;
16510;SDS011;8368;48.772;8.754;2022-09-16T04:17:18;5.67;;;5.17;;
16510;SDS011;8368;48.772;8.754;2022-09-16T04:19:44;6.90;;;5.70;;
16510;SDS011;8368;48.772;8.754;2022-09-16T04:22:09;8.47;;;5.67;;
16510;SDS011;8368;48.772;8.754;2022-09-16T04:24:35;7.60;;;5.90;;
16510;SDS011;8368;48.772;8.754;2022-09-16T04:27:00;8.80;;;6.57;;
16510;SDS011;8368;48.772;8.754;2022-09-16T04:29:26;8.53;;;6.20;;
16510;SDS011;8368;48.772;8.754;2022-09-16T04:31:52;6.13;;;5.53;;
16510;SDS011;8368;48.772;8.754;2022-09-16T04:34:18;7.57;;;5.97;;
16510;SDS011;8368;48.772;8.754;2022-09-16T04:36:43;7.63;;;6.13;;
16510;SDS011;8368;48.772;8.754;2022-09-16T04:39:09;7.73;;;6.47;;
16510;SDS011;8368;48.772;8.754;2022-09-16T04:41:36;7.63;;;6.60;;
16510;SDS011;8368;48.772;8.754;2022-09-16T04:44:02;8.60;;;6.47;;
16510;SDS011;8368;48.772;8.754;2022-09-16T04:46:29;9.73;;;6.80;;
16510;SDS011;8368;48.772;8.754;2022-09-16T04:48:56;8.27;;;6.03;;
16510;SDS011;8368;48.772;8.754;2022-09-16T04:51:22;7.87;;;6.07;;
16510;SDS011;8368;48.772;8.754;2022-09-16T04:53:51;10.07;;;6.47;;
16510;SDS011;8368;48.772;8.754;2022-09-16T04:56:20;10.43;;;6.70;;
16510;SDS011;8368;48.772;8.754;2022-09-16T04:58:51;11.53;;;6.33;;
16510;SDS011;8368;48.772;8.754;2022-09-16T05:01:22;8.20;;;6.20;;
16510;SDS011;8368;48.772;8.754;2022-09-16T05:03:53;13.50;;;6.60;;
16510;SDS011;8368;48.772;8.754;2022-09-16T05:06:20;8.37;;;5.87;;
16510;SDS011;8368;48.772;8.754;2022-09-16T05:08:51;8.30;;;6.23;;
16510;SDS011;8368;48.772;8.754;2022-09-16T05:11:18;6.60;;;5.40;;
16510;SDS011;8368;48.772;8.754;2022-09-16T05:13:45;11.53;;;5.70;;
16510;SDS011;8368;48.772;8.754;2022-09-16T05:16:12;9.30;;;5.70;;
16510;SDS011;8368;48.772;8.754;2022-09-16T05:18:40;9.37;;;5.70;;
16510;SDS011;8368;48.772;8.754;2022-09-16T05:21:08;6.30;;;5.47;;
16510;SDS011;8368;48.772;8.754;2022-09-16T05:23:36;8.03;;;5.70;;
16510;SDS011;8368;48.772;8.754;2022-09-16T05:26:26;7.90;;;5.30;;
16510;SDS011;8368;48.772;8.754;2022-09-16T05:28:52;7.03;;;5.83;;
16510;SDS011;8368;48.772;8.754;2022-09-16T05:31:22;8.40;;;6.20;;
16510;SDS011;8368;48.772;8.754;2022-09-16T05:36:19;7.03;;;5.50;;
16510;SDS011;8368;48.772;8.754;2022-09-16T05:38:44;12.03;;;5.80;;
16510;SDS011;8368;48.772;8.754;2022-09-16T05:41:10;8.40;;;6.20;;
16510;SDS011;8368;48.772;8.754;2022-09-16T05:43:36;6.93;;;5.97;;
16510;SDS011;8368;48.772;8.754;2022-09-16T05:46:03;6.37;;;5.87;;
16510;SDS011;8368;48.772;8.754;2022-09-16T05:48:29;7.77;;;6.00;;
16510;SDS011;8368;48.772;8.754;2022-09-16T05:50:56;7.20;;;5.63;;
16510;SDS011;8368;48.772;8.754;2022-09-16T05:53:24;6.50;;;5.77;;
16510;SDS011;8368;48.772;8.754;2022-09-16T05:55:54;9.57;;;6.50;;
16510;SDS011;8368;48.772;8.754;2022-09-16T05:58:24;7.43;;;5.73;;
16510;SDS011;8368;48.772;8.754;2022-09-16T06:00:50;9.40;;;6.20;;
16510;SDS011;8368;48.772;8.754;2022-09-16T06:03:16;7.20;;;6.00;;
16510;SDS011;8368;48.772;8.754;2022-09-16T06:05:42;7.93;;;6.13;;
16510;SDS011;8368;48.772;8.754;2022-09-16T06:08:07;9.90;;;6.27;;
16510;SDS011;8368;48.772;8.754;2022-09-16T06:10:37;6.93;;;6.10;;
16510;SDS011;8368;48.772;8.754;2022-09-16T06:13:03;7.13;;;5.90;;
16510;SDS011;8368;48.772;8.754;2022-09-16T06:15:29;10.43;;;5.80;;
16510;SDS011;8368;48.772;8.754;2022-09-16T06:17:55;7.97;;;5.60;;
16510;SDS011;8368;48.772;8.754;2022-09-16T06:20:20;8.97;;;6.30;;
16510;SDS011;8368;48.772;8.754;2022-09-16T06:22:46;9.10;;;6.43;;
16510;SDS011;8368;48.772;8.754;2022-09-16T06:25:11;9.90;;;6.53;;
16510;SDS011;8368;48.772;8.754;2022-09-16T06:27:37;10.87;;;6.90;;
16510;SDS011;8368;48.772;8.754;2022-09-16T06:30:03;12.77;;;6.87;;
16510;SDS011;8368;48.772;8.754;2022-09-16T06:32:29;7.83;;;6.33;;
16510;SDS011;8368;48.772;8.754;2022-09-16T06:34:55;8.60;;;6.23;;
16510;SDS011;8368;48.772;8.754;2022-09-16T06:37:21;9.23;;;6.10;;
16510;SDS011;8368;48.772;8.754;2022-09-16T06:39:46;7.57;;;6.83;;
16510;SDS011;8368;48.772;8.754;2022-09-16T06:42:12;12.70;;;6.83;;
16510;SDS011;8368;48.772;8.754;2022-09-16T06:44:38;7.80;;;6.83;;
16510;SDS011;8368;48.772;8.754;2022-09-16T06:47:03;9.83;;;7.17;;
16510;SDS011;8368;48.772;8.754;2022-09-16T06:49:29;9.23;;;6.87;;
16510;SDS011;8368;48.772;8.754;2022-09-16T06:51:55;14.40;;;7.50;;
16510;SDS011;8368;48.772;8.754;2022-09-16T06:54:20;10.97;;;7.63;;
16510;SDS011;8368;48.772;8.754;2022-09-16T06:56:46;13.30;;;7.67;;
16510;SDS011;8368;48.772;8.754;2022-09-16T06:59:11;10.07;;;7.57;;
16510;SDS011;8368;48.772;8.754;2022-09-16T07:01:38;11.13;;;8.17;;
16510;SDS011;8368;48.772;8.754;2022-09-16T07:04:05;11.87;;;8.80;;
16510;SDS011;8368;48.772;8.754;2022-09-16T07:06:34;10.57;;;8.47;;
16510;SDS011;8368;48.772;8.754;2022-09-16T07:09:00;11.63;;;8.27;;
16510;SDS011;8368;48.772;8.754;2022-09-16T07:11:26;12.77;;;9.90;;
16510;SDS011;8368;48.772;8.754;2022-09-16T07:13:52;11.33;;;9.13;;
16510;SDS011;8368;48.772;8.754;2022-09-16T07:16:19;12.17;;;9.20;;
16510;SDS011;8368;48.772;8.754;2022-09-16T07:18:50;11.80;;;8.67;;
16510;SDS011;8368;48.772;8.754;2022-09-16T07:21:20;12.37;;;8.77;;
16510;SDS011;8368;48.772;8.754;2022-09-16T07:23:49;8.67;;;7.97;;
16510;SDS011;8368;48.772;8.754;2022-09-16T07:26:15;10.70;;;8.37;;
16510;SDS011;8368;48.772;8.754;2022-09-16T07:28:44;8.63;;;7.80;;
16510;SDS011;8368;48.772;8.754;2022-09-16T07:31:32;8.70;;;7.87;;
16510;SDS011;8368;48.772;8.754;2022-09-16T07:33:58;8.63;;;6.47;;
16510;SDS011;8368;48.772;8.754;2022-09-16T07:36:28;7.07;;;6.40;;
16510;SDS011;8368;48.772;8.754;2022-09-16T07:39:02;10.17;;;7.07;;
16510;SDS011;8368;48.772;8.754;2022-09-16T07:41:29;7.40;;;6.67;;
16510;SDS011;8368;48.772;8.754;2022-09-16T07:43:58;8.17;;;6.70;;
16510;SDS011;8368;48.772;8.754;2022-09-16T07:46:25;8.33;;;6.60;;
16510;SDS011;8368;48.772;8.754;2022-09-16T07:48:52;7.40;;;6.77;;
16510;SDS011;8368;48.772;8.754;2022-09-16T07:51:19;6.97;;;6.13;;
16510;SDS011;8368;48.772;8.754;2022-09-16T07:53:48;7.27;;;6.23;;
16510;SDS011;8368;48.772;8.754;2022-09-16T07:56:29;7.77;;;5.83;;
16510;SDS011;8368;48.772;8.754;2022-09-16T07:58:56;7.17;;;6.40;;
16510;SDS011;8368;48.772;8.754;2022-09-16T08:01:22;8.67;;;6.00;;
16510;SDS011;8368;48.772;8.754;2022-09-16T08:03:48;7.53;;;5.80;;
16510;SDS011;8368;48.772;8.754;2022-09-16T08:06:18;6.70;;;5.97;;
16510;SDS011;8368;48.772;8.754;2022-09-16T08:08:45;6.47;;;5.93;;
16510;SDS011;8368;48.772;8.754;2022-09-16T08:11:11;6.77;;;5.90;;
16510;SDS011;8368;48.772;8.754;2022-09-16T08:13:38;6.17;;;5.57;;
16510;SDS011;8368;48.772;8.754;2022-09-16T08:16:05;5.77;;;5.37;;
16510;SDS011;8368;48.772;8.754;2022-09-16T08:18:36;6.13;;;5.53;;
16510;SDS011;8368;48.772;8.754;2022-09-16T08:21:08;5.27;;;4.87;;
16510;SDS011;8368;48.772;8.754;2022-09-16T08:23:42;4.20;;;4.00;;
16510;SDS011;8368;48.772;8.754;2022-09-16T08:26:08;5.23;;;4.80;;
16510;SDS011;8368;48.772;8.754;2022-09-16T08:28:35;4.87;;;4.47;;
16510;SDS011;8368;48.772;8.754;2022-09-16T08:31:02;9.03;;;5.10;;
16510;SDS011;8368;48.772;8.754;2022-09-16T08:33:27;5.87;;;4.60;;
16510;SDS011;8368;48.772;8.754;2022-09-16T08:36:00;4.83;;;4.33;;
16510;SDS011;8368;48.772;8.754;2022-09-16T08:38:32;4.83;;;4.33;;
16510;SDS011;8368;48.772;8.754;2022-09-16T08:43:42;5.57;;;4.00;;
16510;SDS011;8368;48.772;8.754;2022-09-16T08:46:35;5.10;;;4.50;;
16510;SDS011;8368;48.772;8.754;2022-09-16T08:51:30;4.50;;;4.10;;
16510;SDS011;8368;48.772;8.754;2022-09-16T08:53:57;4.53;;;3.87;;
16510;SDS011;8368;48.772;8.754;2022-09-16T08:56:27;3.73;;;3.53;;
16510;SDS011;8368;48.772;8.754;2022-09-16T08:58:57;4.03;;;3.73;;
16510;SDS011;8368;48.772;8.754;2022-09-16T09:01:33;5.03;;;3.90;;
16510;SDS011;8368;48.772;8.754;2022-09-16T09:04:08;4.50;;;4.10;;
16510;SDS011;8368;48.772;8.754;2022-09-16T09:12:48;7.53;;;5.00;;
16510;SDS011;8368;48.772;8.754;2022-09-16T09:18:03;5.00;;;4.20;;
16510;SDS011;8368;48.772;8.754;2022-09-16T09:25:57;3.83;;;3.53;;
16510;SDS011;8368;48.772;8.754;2022-09-16T09:33:54;5.60;;;3.38;;
16510;SDS011;8368;48.772;8.754;2022-09-16T09:39:58;3.10;;;2.90;;
16510;SDS011;8368;48.772;8.754;2022-09-16T09:42:16;3.90;;;3.00;;
16510;SDS011;8368;48.772;8.754;2022-09-16T09:44:54;3.60;;;3.00;;
16510;SDS011;8368;48.772;8.754;2022-09-16T09:50:48;3.17;;;2.93;;
16510;SDS011;8368;48.772;8.754;2022-09-16T09:53:35;3.67;;;3.40;;
16510;SDS011;8368;48.772;8.754;2022-09-16T09:56:13;4.20;;;3.80;;
16510;SDS011;8368;48.772;8.754;2022-09-16T10:01:29;4.75;;;3.22;;
16510;SDS011;8368;48.772;8.754;2022-09-16T10:03:55;3.93;;;3.40;;
16510;SDS011;8368;48.772;8.754;2022-09-16T10:06:25;3.58;;;3.00;;
16510;SDS011;8368;48.772;8.754;2022-09-16T10:08:55;3.50;;;3.20;;
16510;SDS011;8368;48.772;8.754;2022-09-16T10:11:27;3.40;;;3.07;;
16510;SDS011;8368;48.772;8.754;2022-09-16T10:13:56;4.32;;;3.15;;
16510;SDS011;8368;48.772;8.754;2022-09-16T10:16:30;3.77;;;3.47;;
16510;SDS011;8368;48.772;8.754;2022-09-16T10:19:18;3.87;;;3.17;;
16510;SDS011;8368;48.772;8.754;2022-09-16T10:21:47;2.85;;;2.65;;
16510;SDS011;8368;48.772;8.754;2022-09-16T10:24:33;6.87;;;2.47;;
16510;SDS011;8368;48.772;8.754;2022-09-16T10:32:44;3.45;;;2.10;;
16510;SDS011;8368;48.772;8.754;2022-09-16T10:35:23;2.17;;;2.03;;
16510;SDS011;8368;48.772;8.754;2022-09-16T10:40:27;2.23;;;2.10;;
16510;SDS011;8368;48.772;8.754;2022-09-16T10:42:55;2.83;;;2.20;;
16510;SDS011;8368;48.772;8.754;2022-09-16T10:45:26;3.17;;;2.40;;
16510;SDS011;8368;48.772;8.754;2022-09-16T10:47:56;2.20;;;2.10;;
16510;SDS011;8368;48.772;8.754;2022-09-16T10:50:24;3.20;;;2.40;;
16510;SDS011;8368;48.772;8.754;2022-09-16T10:52:50;3.27;;;2.20;;
16510;SDS011;8368;48.772;8.754;2022-09-16T10:55:29;2.07;;;1.93;;
16510;SDS011;8368;48.772;8.754;2022-09-16T10:58:16;3.30;;;1.90;;
16510;SDS011;8368;48.772;8.754;2022-09-16T11:01:04;4.80;;;2.07;;
16510;SDS011;8368;48.772;8.754;2022-09-16T11:07:17;2.20;;;2.00;;
16510;SDS011;8368;48.772;8.754;2022-09-16T11:26:39;3.73;;;2.20;;
16510;SDS011;8368;48.772;8.754;2022-09-16T11:37:36;4.33;;;2.20;;
16510;SDS011;8368;48.772;8.754;2022-09-16T11:40:19;2.23;;;2.00;;
16510;SDS011;8368;48.772;8.754;2022-09-16T11:42:52;3.00;;;2.13;;
16510;SDS011;8368;48.772;8.754;2022-09-16T11:50:52;2.23;;;2.13;;
16510;SDS011;8368;48.772;8.754;2022-09-16T11:56:05;5.37;;;2.73;;
16510;SDS011;8368;48.772;8.754;2022-09-16T11:58:45;5.23;;;3.00;;
16510;SDS011;8368;48.772;8.754;2022-09-16T12:01:21;4.20;;;2.97;;
16510;SDS011;8368;48.772;8.754;2022-09-16T12:06:20;3.37;;;3.00;;
16510;SDS011;8368;48.772;8.754;2022-09-16T12:11:32;2.58;;;2.38;;
16510;SDS011;8368;48.772;8.754;2022-09-16T12:14:07;3.33;;;2.45;;
16510;SDS011;8368;48.772;8.754;2022-09-16T12:16:38;4.60;;;2.50;;
16510;SDS011;8368;48.772;8.754;2022-09-16T12:19:17;3.57;;;2.43;;
16510;SDS011;8368;48.772;8.754;2022-09-16T12:21:51;2.65;;;2.40;;
16510;SDS011;8368;48.772;8.754;2022-09-16T12:24:41;4.70;;;1.95;;
16510;SDS011;8368;48.772;8.754;2022-09-16T12:35:27;3.70;;;2.17;;
16510;SDS011;8368;48.772;8.754;2022-09-16T12:37:57;3.43;;;1.93;;
16510;SDS011;8368;48.772;8.754;2022-09-16T12:40:27;3.23;;;2.00;;
16510;SDS011;8368;48.772;8.754;2022-09-16T12:45:54;4.25;;;1.90;;
16510;SDS011;8368;48.772;8.754;2022-09-16T12:54:27;2.78;;;2.13;;
16510;SDS011;8368;48.772;8.754;2022-09-16T13:00:16;2.80;;;2.00;;
16510;SDS011;8368;48.772;8.754;2022-09-16T13:02:51;2.03;;;1.83;;
16510;SDS011;8368;48.772;8.754;2022-09-16T13:05:26;2.60;;;2.20;;
16510;SDS011;8368;48.772;8.754;2022-09-16T13:07:56;3.97;;;2.00;;
16510;SDS011;8368;48.772;8.754;2022-09-16T13:10:33;2.88;;;1.95;;
16510;SDS011;8368;48.772;8.754;2022-09-16T13:13:01;2.70;;;2.10;;
16510;SDS011;8368;48.772;8.754;2022-09-16T13:18:06;3.70;;;1.60;;
16510;SDS011;8368;48.772;8.754;2022-09-16T13:20:48;2.05;;;1.73;;
16510;SDS011;8368;48.772;8.754;2022-09-16T13:23:30;4.20;;;1.70;;
16510;SDS011;8368;48.772;8.754;2022-09-16T13:26:03;3.72;;;1.85;;
16510;SDS011;8368;48.772;8.754;2022-09-16T13:28:43;2.30;;;2.05;;
16510;SDS011;8368;48.772;8.754;2022-09-16T13:33:36;2.30;;;2.10;;
16510;SDS011;8368;48.772;8.754;2022-09-16T13:38:44;2.67;;;2.15;;
16510;SDS011;8368;48.772;8.754;2022-09-16T13:41:13;5.82;;;1.95;;
16510;SDS011;8368;48.772;8.754;2022-09-16T13:43:53;2.10;;;2.00;;
16510;SDS011;8368;48.772;8.754;2022-09-16T13:48:55;3.33;;;2.10;;
16510;SDS011;8368;48.772;8.754;2022-09-16T13:51:28;3.80;;;2.03;;
16510;SDS011;8368;48.772;8.754;2022-09-16T13:53:56;2.60;;;1.77;;
16510;SDS011;8368;48.772;8.754;2022-09-16T14:08:13;2.85;;;1.98;;
16510;SDS011;8368;48.772;8.754;2022-09-16T14:13:23;2.67;;;1.83;;
16510;SDS011;8368;48.772;8.754;2022-09-16T14:15:56;4.85;;;2.03;;
16510;SDS011;8368;48.772;8.754;2022-09-16T14:18:29;3.00;;;2.08;;
16510;SDS011;8368;48.772;8.754;2022-09-16T14:20:59;3.80;;;1.80;;
16510;SDS011;8368;48.772;8.754;2022-09-16T14:23:27;2.35;;;1.95;;
16510;SDS011;8368;48.772;8.754;2022-09-16T14:25:53;2.47;;;1.55;;
16510;SDS011;8368;48.772;8.754;2022-09-16T14:28:20;3.60;;;1.67;;
16510;SDS011;8368;48.772;8.754;2022-09-16T14:30:54;5.38;;;2.15;;
16510;SDS011;8368;48.772;8.754;2022-09-16T14:33:43;1.45;;;1.40;;
16510;SDS011;8368;48.772;8.754;2022-09-16T14:36:18;3.63;;;1.80;;
16510;SDS011;8368;48.772;8.754;2022-09-16T14:38:51;3.42;;;1.77;;
16510;SDS011;8368;48.772;8.754;2022-09-16T14:41:24;2.47;;;1.67;;
16510;SDS011;8368;48.772;8.754;2022-09-16T14:43:55;1.75;;;1.60;;
16510;SDS011;8368;48.772;8.754;2022-09-16T14:46:31;3.20;;;1.73;;
16510;SDS011;8368;48.772;8.754;2022-09-16T14:48:57;2.13;;;1.52;;
16510;SDS011;8368;48.772;8.754;2022-09-16T14:51:23;2.90;;;1.60;;
16510;SDS011;8368;48.772;8.754;2022-09-16T14:53:55;2.50;;;1.45;;
16510;SDS011;8368;48.772;8.754;2022-09-16T14:56:22;1.92;;;1.35;;
16510;SDS011;8368;48.772;8.754;2022-09-16T14:58:49;2.40;;;1.75;;
16510;SDS011;8368;48.772;8.754;2022-09-16T15:01:18;4.25;;;1.92;;
16510;SDS011;8368;48.772;8.754;2022-09-16T15:03:50;2.97;;;1.55;;
16510;SDS011;8368;48.772;8.754;2022-09-16T15:06:26;5.65;;;1.70;;
16510;SDS011;8368;48.772;8.754;2022-09-16T15:09:05;2.15;;;1.60;;
16510;SDS011;8368;48.772;8.754;2022-09-16T15:12:00;3.97;;;1.70;;
16510;SDS011;8368;48.772;8.754;2022-09-16T15:14:27;3.45;;;1.67;;
16510;SDS011;8368;48.772;8.754;2022-09-16T15:16:58;2.63;;;2.00;;
16510;SDS011;8368;48.772;8.754;2022-09-16T15:19:28;3.03;;;1.60;;
16510;SDS011;8368;48.772;8.754;2022-09-16T15:21:59;2.35;;;1.70;;
16510;SDS011;8368;48.772;8.754;2022-09-16T15:24:26;4.00;;;1.88;;
16510;SDS011;8368;48.772;8.754;2022-09-16T15:26:55;3.28;;;1.60;;
16510;SDS011;8368;48.772;8.754;2022-09-16T15:31:48;2.42;;;1.90;;
16510;SDS011;8368;48.772;8.754;2022-09-16T15:36:56;2.93;;;1.53;;
16510;SDS011;8368;48.772;8.754;2022-09-16T15:42:02;2.22;;;1.60;;
16510;SDS011;8368;48.772;8.754;2022-09-16T15:44:34;5.13;;;1.50;;
16510;SDS011;8368;48.772;8.754;2022-09-16T15:47:00;1.63;;;1.52;;
16510;SDS011;8368;48.772;8.754;2022-09-16T15:49:27;1.77;;;1.67;;
16510;SDS011;8368;48.772;8.754;2022-09-16T15:51:56;2.42;;;1.45;;
16510;SDS011;8368;48.772;8.754;2022-09-16T15:54:32;3.03;;;1.98;;
16510;SDS011;8368;48.772;8.754;2022-09-16T15:57:10;4.28;;;1.83;;
16510;SDS011;8368;48.772;8.754;2022-09-16T16:02:20;1.55;;;1.52;;
16510;SDS011;8368;48.772;8.754;2022-09-16T16:04:53;5.80;;;1.60;;
16510;SDS011;8368;48.772;8.754;2022-09-16T16:07:41;2.10;;;1.40;;
16510;SDS011;8368;48.772;8.754;2022-09-16T16:10:19;2.60;;;1.90;;
16510;SDS011;8368;48.772;8.754;2022-09-16T16:12:54;1.73;;;1.63;;
16510;SDS011;8368;48.772;8.754;2022-09-16T16:15:22;3.73;;;2.00;;
16510;SDS011;8368;48.772;8.754;2022-09-16T16:17:51;2.70;;;1.70;;
16510;SDS011;8368;48.772;8.754;2022-09-16T16:20:18;1.50;;;1.48;;
16510;SDS011;8368;48.772;8.754;2022-09-16T16:22:45;4.25;;;1.70;;
16510;SDS011;8368;48.772;8.754;2022-09-16T16:25:10;4.00;;;1.50;;
16510;SDS011;8368;48.772;8.754;2022-09-16T16:27:37;3.07;;;1.90;;
16510;SDS011;8368;48.772;8.754;2022-09-16T16:30:03;3.50;;;1.60;;
16510;SDS011;8368;48.772;8.754;2022-09-16T16:32:29;2.27;;;1.50;;
16510;SDS011;8368;48.772;8.754;2022-09-16T16:34:56;4.67;;;2.00;;
16510;SDS011;8368;48.772;8.754;2022-09-16T16:37:23;3.57;;;1.43;;
16510;SDS011;8368;48.772;8.754;2022-09-16T16:39:49;2.30;;;1.80;;
16510;SDS011;8368;48.772;8.754;2022-09-16T16:42:15;3.30;;;1.63;;
16510;SDS011;8368;48.772;8.754;2022-09-16T16:44:42;2.47;;;1.60;;
16510;SDS011;8368;48.772;8.754;2022-09-16T16:47:08;3.17;;;1.87;;
16510;SDS011;8368;48.772;8.754;2022-09-16T16:49:34;1.70;;;1.60;;
16510;SDS011;8368;48.772;8.754;2022-09-16T16:52:00;2.80;;;1.87;;
16510;SDS011;8368;48.772;8.754;2022-09-16T16:54:27;1.67;;;1.57;;
16510;SDS011;8368;48.772;8.754;2022-09-16T16:56:53;2.07;;;1.80;;
16510;SDS011;8368;48.772;8.754;2022-09-16T16:59:19;1.73;;;1.40;;
16510;SDS011;8368;48.772;8.754;2022-09-16T17:01:46;3.23;;;1.70;;
16510;SDS011;8368;48.772;8.754;2022-09-16T17:04:15;4.20;;;1.60;;
16510;SDS011;8368;48.772;8.754;2022-09-16T17:06:40;1.70;;;1.60;;
16510;SDS011;8368;48.772;8.754;2022-09-16T17:09:07;2.03;;;1.77;;
16510;SDS011;8368;48.772;8.754;2022-09-16T17:11:34;3.37;;;1.50;;
16510;SDS011;8368;48.772;8.754;2022-09-16T17:14:01;3.50;;;1.73;;
16510;SDS011;8368;48.772;8.754;2022-09-16T17:16:31;5.37;;;1.40;;
16510;SDS011;8368;48.772;8.754;2022-09-16T17:18:58;2.50;;;1.40;;
16510;SDS011;8368;48.772;8.754;2022-09-16T17:21:28;1.30;;;1.20;;
16510;SDS011;8368;48.772;8.754;2022-09-16T17:23:56;2.77;;;1.60;;
16510;SDS011;8368;48.772;8.754;2022-09-16T17:26:22;3.93;;;1.70;;
16510;SDS011;8368;48.772;8.754;2022-09-16T17:28:49;2.67;;;1.57;;
16510;SDS011;8368;48.772;8.754;2022-09-16T17:31:22;4.53;;;1.67;;
16510;SDS011;8368;48.772;8.754;2022-09-16T17:33:53;5.33;;;2.53;;
16510;SDS011;8368;48.772;8.754;2022-09-16T17:36:20;2.90;;;1.50;;
16510;SDS011;8368;48.772;8.754;2022-09-16T17:38:48;2.80;;;1.60;;
16510;SDS011;8368;48.772;8.754;2022-09-16T17:41:20;4.20;;;1.43;;
16510;SDS011;8368;48.772;8.754;2022-09-16T17:43:46;2.23;;;2.03;;
16510;SDS011;8368;48.772;8.754;2022-09-16T17:46:14;7.53;;;5.43;;
16510;SDS011;8368;48.772;8.754;2022-09-16T17:48:41;30.37;;;16.93;;
16510;SDS011;8368;48.772;8.754;2022-09-16T17:51:07;4.37;;;4.03;;
16510;SDS011;8368;48.772;8.754;2022-09-16T17:53:33;7.00;;;4.93;;
16510;SDS011;8368;48.772;8.754;2022-09-16T17:56:06;12.33;;;9.10;;
16510;SDS011;8368;48.772;8.754;2022-09-16T17:58:42;2.40;;;2.20;;
16510;SDS011;8368;48.772;8.754;2022-09-16T18:01:10;1.87;;;1.87;;
16510;SDS011;8368;48.772;8.754;2022-09-16T18:03:44;1.80;;;1.70;;
16510;SDS011;8368;48.772;8.754;2022-09-16T18:06:13;1.80;;;1.60;;
16510;SDS011;8368;48.772;8.754;2022-09-16T18:08:42;5.07;;;3.33;;
16510;SDS011;8368;48.772;8.754;2022-09-16T18:11:08;2.63;;;1.90;;
16510;SDS011;8368;48.772;8.754;2022-09-16T18:13:35;5.90;;;5.43;;
16510;SDS011;8368;48.772;8.754;2022-09-16T18:16:04;1.40;;;1.37;;
16510;SDS011;8368;48.772;8.754;2022-09-16T18:18:32;3.50;;;1.63;;
16510;SDS011;8368;48.772;8.754;2022-09-16T18:21:02;2.00;;;1.83;;
16510;SDS011;8368;48.772;8.754;2022-09-16T18:23:28;2.50;;;1.30;;
16510;SDS011;8368;48.772;8.754;2022-09-16T18:25:54;1.17;;;1.07;;